Time;durP1;ratioP1;P1;durP2;ratioP2;P2;SDS_P1;SDS_P2;PMS_P1;PMS_P2;Temp;Humidity;BMP_temperature;BMP_pressure;BME280_temperature;BME280_humidity;BME280_pressure;Samples;Min_cycle;Max_cycle;Signal;HPM_P1;HPM_P2
2024/01/30 00:01:34;;;;;;;11.52;9.10;;;8.30;73.70;;;;;;5058836;28;20063;-48
2024/01/30 00:04:04;;;;;;;10.05;9.05;;;8.30;73.70;;;;;;5059864;28;20050;-47
2024/01/30 00:06:31;;;;;;;9.65;8.65;;;8.30;73.70;;;;;;5068365;28;20115;-48
2024/01/30 00:08:59;;;;;;;14.02;8.90;;;8.30;73.90;;;;;;5068838;28;20051;-50
2024/01/30 00:11:30;;;;;;;10.93;9.02;;;8.30;74.00;;;;;;5063604;28;20051;-47
2024/01/30 00:13:59;;;;;;;9.98;8.82;;;8.30;74.00;;;;;;5065170;28;20123;-50
2024/01/30 00:16:33;;;;;;;11.13;8.80;;;8.30;74.20;;;;;;5069753;28;20131;-50
2024/01/30 00:19:02;;;;;;;11.82;8.52;;;8.30;74.30;;;;;;5067544;28;20120;-48
2024/01/30 00:21:29;;;;;;;13.10;9.38;;;8.30;74.50;;;;;;5071382;28;20054;-47
2024/01/30 00:23:58;;;;;;;11.80;9.63;;;8.30;74.70;;;;;;5072455;28;20044;-47
2024/01/30 00:26:28;;;;;;;14.38;9.82;;;8.30;74.80;;;;;;5063165;28;20045;-47
2024/01/30 00:28:55;;;;;;;11.07;9.15;;;8.30;74.80;;;;;;5071149;28;20050;-48
2024/01/30 00:31:24;;;;;;;13.40;9.40;;;8.30;74.90;;;;;;5065494;28;20114;-46
2024/01/30 00:33:55;;;;;;;10.95;9.02;;;8.30;74.90;;;;;;5062635;28;20123;-46
2024/01/30 00:36:22;;;;;;;9.50;8.50;;;8.30;74.70;;;;;;5071746;28;20047;-48
2024/01/30 00:38:48;;;;;;;9.98;8.43;;;8.30;74.60;;;;;;5071228;28;20565;-47
2024/01/30 00:41:17;;;;;;;11.30;9.23;;;8.30;74.60;;;;;;5064603;28;20052;-47
2024/01/30 00:43:45;;;;;;;13.50;8.85;;;8.30;74.60;;;;;;5066809;28;20049;-48
2024/01/30 00:46:12;;;;;;;11.13;8.82;;;8.30;74.60;;;;;;5070698;28;20090;-48
2024/01/30 00:48:41;;;;;;;9.40;7.68;;;8.30;74.60;;;;;;5068029;28;20047;-47
2024/01/30 00:51:10;;;;;;;9.45;7.93;;;8.30;74.40;;;;;;5071561;28;20041;-48
2024/01/30 00:53:38;;;;;;;10.98;9.20;;;8.30;74.40;;;;;;5066677;28;20045;-48
2024/01/30 00:56:08;;;;;;;11.18;8.32;;;8.20;74.10;;;;;;5064201;28;20086;-48
2024/01/30 00:58:35;;;;;;;10.18;7.88;;;8.20;74.20;;;;;;5059988;28;20045;-46
2024/01/30 01:01:14;;;;;;;10.95;8.43;;;8.20;74.20;;;;;;5068898;28;20414;-49
2024/01/30 01:03:45;;;;;;;9.13;8.15;;;8.10;74.10;;;;;;5065900;28;20039;-47
2024/01/30 01:06:20;;;;;;;10.15;8.15;;;8.10;74.10;;;;;;5071063;28;20102;-47
2024/01/30 01:08:49;;;;;;;13.13;8.85;;;8.10;74.20;;;;;;5070491;28;20071;-47
2024/01/30 01:11:16;;;;;;;9.93;8.90;;;8.10;74.20;;;;;;5065618;28;20072;-47
2024/01/30 01:13:42;;;;;;;11.23;8.93;;;8.10;74.10;;;;;;5066906;28;20098;-48
2024/01/30 01:16:09;;;;;;;10.98;8.60;;;8.10;74.10;;;;;;5070797;28;20040;-50
2024/01/30 01:18:36;;;;;;;12.95;8.48;;;8.00;74.20;;;;;;5066924;28;20032;-47
2024/01/30 01:21:05;;;;;;;9.55;7.93;;;8.00;74.40;;;;;;5065563;28;20090;-49
2024/01/30 01:23:32;;;;;;;13.05;9.45;;;8.00;74.50;;;;;;5070811;28;20048;-46
2024/01/30 01:26:00;;;;;;;9.57;7.78;;;8.00;74.70;;;;;;5069606;28;20057;-47
2024/01/30 01:28:27;;;;;;;11.50;9.18;;;8.00;74.80;;;;;;5071498;28;20040;-47
2024/01/30 01:30:59;;;;;;;10.18;8.98;;;8.00;74.90;;;;;;5065110;28;20457;-46
2024/01/30 01:33:29;;;;;;;11.40;8.93;;;8.00;74.90;;;;;;5054917;28;20056;-48
2024/01/30 01:35:58;;;;;;;10.98;8.45;;;8.00;74.90;;;;;;5066573;28;20051;-48
2024/01/30 01:38:27;;;;;;;9.63;8.60;;;8.00;74.90;;;;;;5070692;28;20123;-50
2024/01/30 01:40:56;;;;;;;11.15;9.52;;;8.00;74.80;;;;;;5061359;28;20449;-47
2024/01/30 01:43:25;;;;;;;9.50;8.50;;;8.00;74.90;;;;;;5065994;28;20068;-50
2024/01/30 01:45:54;;;;;;;12.33;9.07;;;7.90;74.80;;;;;;5068830;28;20131;-46
2024/01/30 01:48:25;;;;;;;11.57;8.77;;;8.00;74.90;;;;;;5063127;28;20048;-46
2024/01/30 01:50:54;;;;;;;10.50;8.57;;;7.90;74.80;;;;;;5070260;28;20051;-46
2024/01/30 01:53:32;;;;;;;10.43;8.85;;;7.90;74.80;;;;;;5052496;28;20402;-46
2024/01/30 01:56:01;;;;;;;11.05;8.75;;;8.00;75.10;;;;;;5057913;28;20098;-48
2024/01/30 01:58:29;;;;;;;10.88;8.95;;;8.00;75.00;;;;;;5057928;28;20076;-46
2024/01/30 02:01:03;;;;;;;11.65;9.10;;;7.90;74.90;;;;;;5053826;28;20033;-47
2024/01/30 02:03:34;;;;;;;12.00;9.25;;;7.90;75.20;;;;;;5063332;28;20045;-50
2024/01/30 02:06:04;;;;;;;12.95;9.63;;;7.90;75.30;;;;;;5069222;28;20064;-47
2024/01/30 02:08:31;;;;;;;11.00;9.27;;;7.90;75.40;;;;;;5070624;28;20410;-47
2024/01/30 02:11:01;;;;;;;15.00;10.38;;;8.00;75.40;;;;;;5065569;28;20455;-50
2024/01/30 02:13:30;;;;;;;11.48;9.45;;;8.00;75.60;;;;;;5070062;28;20127;-47
2024/01/30 02:15:59;;;;;;;15.45;9.52;;;8.00;75.70;;;;;;5065962;28;20040;-47
2024/01/30 02:18:26;;;;;;;11.90;8.98;;;8.00;75.90;;;;;;5064779;28;20044;-47
2024/01/30 02:21:01;;;;;;;13.10;8.80;;;8.00;75.60;;;;;;5062387;28;20143;-46
2024/01/30 02:23:34;;;;;;;10.57;9.48;;;8.00;75.60;;;;;;5066362;28;20059;-47
2024/01/30 02:26:02;;;;;;;13.45;9.25;;;8.00;75.50;;;;;;5066764;28;20559;-47
2024/01/30 02:28:34;;;;;;;12.13;9.18;;;8.00;75.40;;;;;;5066339;28;20129;-47
2024/01/30 02:31:00;;;;;;;12.68;9.32;;;8.00;75.40;;;;;;5059259;28;20045;-47
2024/01/30 02:33:29;;;;;;;11.77;9.50;;;8.00;75.40;;;;;;5066584;28;20101;-46
2024/01/30 02:35:59;;;;;;;15.80;10.95;;;8.00;75.60;;;;;;5064913;28;20511;-48
2024/01/30 02:38:26;;;;;;;10.95;9.43;;;8.00;76.10;;;;;;5065567;28;20059;-46
2024/01/30 02:40:56;;;;;;;12.98;9.65;;;8.00;76.10;;;;;;5066031;28;20040;-48
2024/01/30 02:43:25;;;;;;;12.45;9.82;;;8.00;76.10;;;;;;5065189;28;20572;-47
2024/01/30 02:46:00;;;;;;;12.27;9.77;;;8.10;76.20;;;;;;5066488;28;20137;-48
2024/01/30 02:48:29;;;;;;;12.52;9.63;;;8.00;76.20;;;;;;5061236;28;20061;-47
2024/01/30 02:50:57;;;;;;;13.00;10.05;;;8.10;76.20;;;;;;5058281;28;20048;-50
2024/01/30 02:53:27;;;;;;;12.07;9.90;;;8.10;76.30;;;;;;5047359;28;20043;-47
2024/01/30 02:56:00;;;;;;;12.85;9.57;;;8.10;76.30;;;;;;5066887;28;20173;-48
2024/01/30 02:58:29;;;;;;;12.18;9.38;;;8.10;76.20;;;;;;5061166;28;20041;-48
2024/01/30 03:00:59;;;;;;;12.50;9.30;;;8.10;76.10;;;;;;5058617;28;20044;-48
2024/01/30 03:03:26;;;;;;;9.48;8.43;;;8.10;76.10;;;;;;5063721;28;20418;-47
2024/01/30 03:05:53;;;;;;;13.55;9.88;;;8.10;76.00;;;;;;5064342;28;20047;-46
2024/01/30 03:08:20;;;;;;;10.32;8.85;;;8.10;76.00;;;;;;5058799;28;20126;-46
2024/01/30 03:10:50;;;;;;;11.60;8.57;;;8.10;75.80;;;;;;5060080;28;20063;-47
2024/01/30 03:13:19;;;;;;;12.68;9.82;;;8.10;75.70;;;;;;5057621;28;20045;-46
2024/01/30 03:15:49;;;;;;;12.77;9.50;;;8.00;75.60;;;;;;5066008;28;20086;-46
2024/01/30 03:18:21;;;;;;;12.23;9.82;;;8.10;75.40;;;;;;5051954;28;20094;-46
2024/01/30 03:20:54;;;;;;;9.95;8.05;;;8.00;75.30;;;;;;5068517;28;20037;-48
2024/01/30 03:23:20;;;;;;;11.05;9.57;;;8.00;75.20;;;;;;5068648;28;20126;-46
2024/01/30 03:25:47;;;;;;;10.32;9.23;;;8.00;75.20;;;;;;5059868;28;20124;-48
2024/01/30 03:28:13;;;;;;;11.82;8.85;;;8.00;75.10;;;;;;5064897;28;20123;-47
2024/01/30 03:30:43;;;;;;;10.18;8.95;;;7.90;75.00;;;;;;5065394;28;20048;-46
2024/01/30 03:33:10;;;;;;;8.95;7.88;;;7.90;75.00;;;;;;5063501;28;20767;-48
2024/01/30 03:35:37;;;;;;;12.43;9.85;;;7.90;75.00;;;;;;5066212;28;20044;-48
2024/01/30 03:38:06;;;;;;;11.23;8.93;;;7.90;75.30;;;;;;5062740;28;20095;-45
2024/01/30 03:40:33;;;;;;;10.50;8.57;;;7.90;75.50;;;;;;5057611;28;20064;-48
2024/01/30 03:43:02;;;;;;;13.15;9.45;;;7.80;75.50;;;;;;5058357;28;20120;-47
2024/01/30 03:45:32;;;;;;;10.35;8.85;;;7.80;75.60;;;;;;5060672;28;20072;-48
2024/01/30 03:48:00;;;;;;;11.05;9.30;;;7.80;75.60;;;;;;5065525;28;20462;-46
2024/01/30 03:50:28;;;;;;;10.38;8.57;;;7.80;75.70;;;;;;5073202;28;20063;-49
2024/01/30 03:52:54;;;;;;;10.20;8.55;;;7.80;75.70;;;;;;5071677;28;20055;-46
2024/01/30 03:55:23;;;;;;;14.85;9.70;;;7.80;75.80;;;;;;5069451;28;20075;-46
2024/01/30 03:57:55;;;;;;;9.95;7.85;;;7.80;75.80;;;;;;5058192;28;20580;-48
2024/01/30 04:00:22;;;;;;;13.30;9.23;;;7.80;75.80;;;;;;5064085;28;20045;-47
2024/01/30 04:02:51;;;;;;;10.13;8.45;;;7.80;75.70;;;;;;5064958;28;20071;-47
2024/01/30 04:05:18;;;;;;;11.55;8.68;;;7.80;75.70;;;;;;5072226;28;20110;-47
2024/01/30 04:07:47;;;;;;;13.70;9.25;;;7.80;75.70;;;;;;5072698;28;20039;-49
2024/01/30 04:10:21;;;;;;;10.77;8.70;;;7.70;75.50;;;;;;5071692;28;20126;-47
2024/01/30 04:12:51;;;;;;;12.80;9.05;;;7.80;75.50;;;;;;5067685;28;20059;-47
2024/01/30 04:15:21;;;;;;;10.07;8.77;;;7.70;75.40;;;;;;5072347;28;20135;-49
2024/01/30 04:17:48;;;;;;;8.82;7.80;;;7.70;75.30;;;;;;5071392;28;20119;-47
2024/01/30 04:20:17;;;;;;;12.00;8.88;;;7.70;75.20;;;;;;5069027;28;20063;-46
2024/01/30 04:22:47;;;;;;;10.00;8.93;;;7.70;75.20;;;;;;5069830;28;20132;-48
2024/01/30 04:25:17;;;;;;;13.70;9.00;;;7.70;75.30;;;;;;5071585;28;20056;-46
2024/01/30 04:27:44;;;;;;;12.00;8.70;;;7.70;75.40;;;;;;5066956;28;20071;-46
2024/01/30 04:30:19;;;;;;;12.98;9.40;;;7.70;75.60;;;;;;5068430;28;20044;-46
2024/01/30 04:32:48;;;;;;;9.25;8.13;;;7.70;76.50;;;;;;5063236;28;20048;-46
2024/01/30 04:35:15;;;;;;;12.88;9.23;;;7.70;75.90;;;;;;5084444;22;20049;-55
2024/01/30 04:37:42;;;;;;;11.15;9.32;;;7.70;76.10;;;;;;5043882;28;20523;-55
2024/01/30 04:40:13;;;;;;;12.18;9.15;;;7.70;76.20;;;;;;5044357;28;20056;-56
2024/01/30 04:42:49;;;;;;;10.85;8.95;;;7.70;76.20;;;;;;5051814;28;20041;-56
2024/01/30 04:45:18;;;;;;;11.52;9.00;;;7.70;76.40;;;;;;5061206;28;20049;-56
2024/01/30 04:47:50;;;;;;;;;;;7.70;76.30;;;;;;5043802;28;20484;-56
2024/01/30 04:50:19;;;;;;;9.30;8.25;;;7.70;76.70;;;;;;5041010;28;19933;-56
2024/01/30 04:52:46;;;;;;;9.98;7.45;;;7.70;75.80;;;;;;5040468;28;20053;-53
2024/01/30 04:55:15;;;;;;;10.18;8.40;;;7.70;75.70;;;;;;5030260;28;20092;-56
2024/01/30 04:57:46;;;;;;;10.30;8.38;;;7.70;75.80;;;;;;5032032;28;20522;-56
2024/01/30 05:00:16;;;;;;;12.38;8.60;;;7.70;75.80;;;;;;5025720;28;20047;-56
2024/01/30 05:02:46;;;;;;;10.25;8.82;;;7.70;75.90;;;;;;5032815;28;20415;-56
2024/01/30 05:05:13;;;;;;;8.90;8.00;;;7.70;76.00;;;;;;5046681;28;20075;-55
2024/01/30 05:07:41;;;;;;;8.55;7.60;;;7.70;75.90;;;;;;5033959;28;20599;-56
2024/01/30 05:10:10;;;;;;;9.32;7.63;;;7.70;76.40;;;;;;5031443;28;20045;-55
2024/01/30 05:12:39;;;;;;;9.30;7.40;;;7.70;75.70;;;;;;5030887;28;20046;-56
2024/01/30 05:15:09;;;;;;;8.93;7.35;;;7.70;75.60;;;;;;5031065;28;20458;-56
2024/01/30 05:17:36;;;;;;;10.43;8.02;;;7.70;75.50;;;;;;5032242;28;20128;-56
2024/01/30 05:20:10;;;;;;;9.63;7.43;;;7.70;75.60;;;;;;5045896;28;20059;-56
2024/01/30 05:22:37;;;;;;;8.30;7.28;;;7.70;75.60;;;;;;5048872;28;20083;-55
2024/01/30 05:25:06;;;;;;;9.07;8.07;;;7.70;75.50;;;;;;5047247;28;20033;-55
2024/01/30 05:27:37;;;;;;;8.10;7.15;;;7.70;75.50;;;;;;5034723;28;20041;-56
2024/01/30 05:30:07;;;;;;;10.13;8.07;;;7.70;75.40;;;;;;5045638;28;20037;-55
2024/01/30 05:32:34;;;;;;;9.13;7.53;;;7.70;75.40;;;;;;5030070;28;20069;-56
2024/01/30 05:35:01;;;;;;;10.52;7.95;;;7.70;75.30;;;;;;5031750;28;20051;-55
2024/01/30 05:37:27;;;;;;;8.98;7.20;;;7.70;75.30;;;;;;5045372;28;20128;-56
2024/01/30 05:39:54;;;;;;;9.93;7.53;;;7.80;75.40;;;;;;5038581;28;20052;-55
2024/01/30 05:42:21;;;;;;;10.65;8.70;;;7.70;75.40;;;;;;5027894;28;20042;-55
2024/01/30 05:44:50;;;;;;;9.40;7.97;;;7.80;75.50;;;;;;5030582;28;20056;-56
2024/01/30 05:47:17;;;;;;;11.45;10.25;;;7.80;75.50;;;;;;5030480;28;20499;-55
2024/01/30 05:49:46;;;;;;;12.38;11.07;;;7.80;75.60;;;;;;5028772;28;20514;-56
2024/01/30 05:52:15;;;;;;;13.88;12.40;;;7.80;75.80;;;;;;5043181;28;20048;-56
2024/01/30 05:54:41;;;;;;;13.02;11.60;;;7.90;76.00;;;;;;5033521;28;20045;-54
2024/01/30 05:57:08;;;;;;;14.20;11.32;;;7.90;76.10;;;;;;5027942;28;20057;-56
2024/01/30 05:59:36;;;;;;;11.80;10.57;;;7.90;76.10;;;;;;5029426;28;20084;-56
2024/01/30 06:02:06;;;;;;;11.30;10.10;;;7.90;76.10;;;;;;5027482;28;20569;-56
2024/01/30 06:04:33;;;;;;;12.90;10.30;;;8.00;76.10;;;;;;5043004;28;20033;-54
2024/01/30 06:07:02;;;;;;;11.18;9.30;;;7.90;76.10;;;;;;5047869;28;20064;-56
2024/01/30 06:09:29;;;;;;;12.52;9.43;;;8.00;76.20;;;;;;5049269;28;20439;-56
2024/01/30 06:11:56;;;;;;;11.52;8.68;;;8.00;76.10;;;;;;5027890;28;20084;-56
2024/01/30 06:14:23;;;;;;;10.88;8.07;;;8.00;76.20;;;;;;5044673;28;20042;-56
2024/01/30 06:16:50;;;;;;;9.65;7.97;;;8.00;76.20;;;;;;5038215;28;20112;-56
2024/01/30 06:19:16;;;;;;;9.05;8.15;;;8.10;76.10;;;;;;5033237;28;20081;-56
2024/01/30 06:21:43;;;;;;;9.77;7.60;;;8.00;76.00;;;;;;5037095;28;20036;-56
2024/01/30 06:24:10;;;;;;;9.57;7.53;;;8.10;75.90;;;;;;5048657;28;20037;-56
2024/01/30 06:26:39;;;;;;;8.90;7.88;;;8.10;75.80;;;;;;5046145;28;20041;-56
2024/01/30 06:29:08;;;;;;;10.35;8.25;;;8.10;75.80;;;;;;5031168;28;20037;-56
2024/01/30 06:31:41;;;;;;;11.02;8.15;;;8.00;75.90;;;;;;5031454;28;20041;-56
2024/01/30 06:34:09;;;;;;;10.50;8.35;;;8.10;76.20;;;;;;5039187;28;20041;-56
2024/01/30 06:36:36;;;;;;;9.80;7.80;;;8.10;76.30;;;;;;5041881;28;20061;-56
2024/01/30 06:39:03;;;;;;;10.25;9.15;;;8.10;76.30;;;;;;5048069;28;20118;-57
2024/01/30 06:41:30;;;;;;;12.90;10.02;;;8.10;76.40;;;;;;5024174;28;20041;-57
2024/01/30 06:43:57;;;;;;;11.63;10.07;;;8.10;76.60;;;;;;5028479;28;20065;-56
2024/01/30 06:46:23;;;;;;;12.88;9.57;;;8.10;76.80;;;;;;5027452;28;20129;-56
2024/01/30 06:48:50;;;;;;;11.35;9.88;;;8.10;76.80;;;;;;5024360;28;20453;-56
2024/01/30 06:51:17;;;;;;;9.90;8.90;;;8.20;76.90;;;;;;5023715;28;20045;-57
2024/01/30 06:53:45;;;;;;;10.88;9.73;;;8.20;76.90;;;;;;5028116;28;20052;-56
2024/01/30 06:56:11;;;;;;;9.70;8.70;;;8.20;76.90;;;;;;5021336;28;20077;-56
2024/01/30 06:58:42;;;;;;;10.55;8.98;;;8.30;76.90;;;;;;5027132;28;20424;-56
2024/01/30 07:01:09;;;;;;;10.73;8.98;;;8.20;76.80;;;;;;5022589;28;20140;-57
2024/01/30 07:03:36;;;;;;;11.23;9.02;;;8.30;76.80;;;;;;5022107;28;20068;-57
2024/01/30 07:06:03;;;;;;;10.32;8.02;;;8.30;76.80;;;;;;5028189;28;20034;-56
2024/01/30 07:08:30;;;;;;;13.65;8.88;;;8.30;76.70;;;;;;5023875;28;20112;-57
2024/01/30 07:10:56;;;;;;;10.20;8.43;;;8.30;76.60;;;;;;5026282;28;20046;-57
2024/01/30 07:13:28;;;;;;;11.75;9.20;;;8.40;76.60;;;;;;5028460;28;20041;-57
2024/01/30 07:15:55;;;;;;;9.48;7.95;;;8.40;76.70;;;;;;5028306;28;20132;-56
2024/01/30 07:18:21;;;;;;;8.88;7.97;;;8.40;76.90;;;;;;5026590;28;20068;-57
2024/01/30 07:20:51;;;;;;;11.20;8.15;;;8.40;76.90;;;;;;5025398;28;20509;-56
2024/01/30 07:23:17;;;;;;;10.45;7.75;;;8.40;76.90;;;;;;5027094;28;20087;-56
2024/01/30 07:25:45;;;;;;;10.38;8.02;;;8.50;76.90;;;;;;5022979;28;20384;-56
2024/01/30 07:28:18;;;;;;;12.52;8.70;;;8.50;76.90;;;;;;5028809;28;20828;-56
2024/01/30 07:30:45;;;;;;;10.00;8.27;;;8.50;76.90;;;;;;5025428;28;20057;-56
2024/01/30 07:33:12;;;;;;;12.73;9.43;;;8.50;77.00;;;;;;5029171;28;20049;-57
2024/01/30 07:35:39;;;;;;;12.52;8.95;;;8.60;77.20;;;;;;5027488;28;20454;-57
2024/01/30 07:38:06;;;;;;;12.73;9.40;;;8.60;77.20;;;;;;5029932;28;20072;-56
2024/01/30 07:40:33;;;;;;;12.98;9.63;;;8.60;77.30;;;;;;5021980;28;20049;-57
2024/01/30 07:43:00;;;;;;;11.68;9.52;;;8.70;77.40;;;;;;5026088;28;20054;-56
2024/01/30 07:45:32;;;;;;;12.85;10.73;;;8.70;77.40;;;;;;5027053;28;20111;-56
2024/01/30 07:48:02;;;;;;;12.77;11.23;;;8.70;77.40;;;;;;5027119;28;20092;-57
2024/01/30 07:50:29;;;;;;;13.20;10.50;;;8.70;78.20;;;;;;5027280;28;20048;-57
2024/01/30 07:52:56;;;;;;;12.05;10.75;;;8.80;77.70;;;;;;5029438;28;20052;-57
2024/01/30 07:55:31;;;;;;;14.02;10.90;;;8.80;77.80;;;;;;5030917;28;20056;-56
2024/01/30 07:57:59;;;;;;;12.05;9.80;;;8.80;77.80;;;;;;5027777;28;20414;-57
2024/01/30 08:00:27;;;;;;;12.82;10.35;;;8.90;77.90;;;;;;5027981;28;20049;-57
2024/01/30 08:02:55;;;;;;;11.02;9.63;;;8.90;78.00;;;;;;5028056;28;20065;-57
2024/01/30 08:05:23;;;;;;;12.18;9.45;;;9.00;77.90;;;;;;5030730;28;20045;-57
2024/01/30 08:07:50;;;;;;;12.30;9.48;;;9.00;77.80;;;;;;5030678;28;20474;-57
2024/01/30 08:10:18;;;;;;;12.40;9.57;;;9.10;77.80;;;;;;5028076;28;20404;-57
2024/01/30 08:12:45;;;;;;;17.15;11.15;;;9.10;77.80;;;;;;5029109;28;20045;-57
2024/01/30 08:15:13;;;;;;;14.52;10.77;;;9.10;77.90;;;;;;5031013;28;20085;-56
2024/01/30 08:17:39;;;;;;;15.68;10.80;;;9.10;77.80;;;;;;5030107;28;20057;-57
2024/01/30 08:20:08;;;;;;;14.73;10.73;;;9.20;77.80;;;;;;5028573;28;20045;-56
2024/01/30 08:22:37;;;;;;;13.68;11.05;;;9.20;77.80;;;;;;5031431;28;20480;-57
2024/01/30 08:25:05;;;;;;;11.95;8.90;;;9.20;77.70;;;;;;5031686;28;20515;-56
2024/01/30 08:27:31;;;;;;;14.85;10.25;;;9.30;77.90;;;;;;5031114;28;20112;-57
2024/01/30 08:29:58;;;;;;;9.60;8.52;;;9.30;77.90;;;;;;5021700;28;20729;-56
2024/01/30 08:32:25;;;;;;;11.05;9.13;;;9.30;77.90;;;;;;5027653;28;20049;-56
2024/01/30 08:34:51;;;;;;;11.57;9.07;;;9.30;77.90;;;;;;5034166;28;20049;-57
2024/01/30 08:37:18;;;;;;;13.98;9.70;;;9.30;78.00;;;;;;5034893;28;20124;-57
2024/01/30 08:39:45;;;;;;;10.18;9.00;;;9.40;78.00;;;;;;5035903;28;20037;-57
2024/01/30 08:42:12;;;;;;;9.35;8.35;;;9.40;78.00;;;;;;5026032;28;20049;-57
2024/01/30 08:44:40;;;;;;;11.02;8.52;;;9.40;78.10;;;;;;5032490;28;20084;-57
2024/01/30 08:47:06;;;;;;;11.93;8.95;;;9.50;78.20;;;;;;5031671;28;20037;-57
2024/01/30 08:49:33;;;;;;;10.20;8.73;;;9.50;78.20;;;;;;5031949;28;20099;-57
2024/01/30 08:52:00;;;;;;;12.73;8.50;;;9.50;78.30;;;;;;5040296;28;20061;-57
2024/01/30 08:54:27;;;;;;;10.63;8.55;;;9.60;78.40;;;;;;5036708;28;20506;-57
2024/01/30 08:56:55;;;;;;;11.63;8.38;;;9.60;78.60;;;;;;5033492;28;20503;-56
2024/01/30 08:59:22;;;;;;;14.52;9.43;;;9.70;78.80;;;;;;5032999;28;20072;-55
2024/01/30 09:01:48;;;;;;;9.75;8.02;;;9.70;79.00;;;;;;5027588;28;20096;-56
2024/01/30 09:04:29;;;;;;;11.70;7.97;;;9.80;79.20;;;;;;5035619;28;20049;-53
2024/01/30 09:06:56;;;;;;;8.63;7.72;;;9.90;79.50;;;;;;5033202;28;20054;-57
2024/01/30 09:09:23;;;;;;;9.65;7.47;;;10.00;79.70;;;;;;5035802;28;20469;-59
2024/01/30 09:11:49;;;;;;;9.35;7.07;;;10.00;80.10;;;;;;5028523;28;20046;-57
2024/01/30 09:14:16;;;;;;;7.07;6.32;;;10.10;80.40;;;;;;5037715;28;20144;-56
2024/01/30 09:16:43;;;;;;;9.75;6.45;;;10.30;80.80;;;;;;5031579;28;20048;-56
2024/01/30 09:19:12;;;;;;;6.57;5.88;;;10.40;81.00;;;;;;5034710;28;20100;-54
2024/01/30 09:21:39;;;;;;;8.93;5.90;;;10.60;81.20;;;;;;5033427;28;20045;-56
2024/01/30 09:24:06;;;;;;;8.13;6.43;;;10.70;81.20;;;;;;5037044;28;20116;-57
2024/01/30 09:26:33;;;;;;;8.15;5.82;;;10.80;81.20;;;;;;5030347;28;20037;-55
2024/01/30 09:28:59;;;;;;;10.00;6.63;;;11.00;81.00;;;;;;5034923;28;20116;-57
2024/01/30 09:31:26;;;;;;;10.65;7.18;;;11.20;80.80;;;;;;5027736;28;20049;-55
2024/01/30 09:33:53;;;;;;;9.52;6.60;;;11.30;80.60;;;;;;5035516;28;20048;-56
2024/01/30 09:36:21;;;;;;;11.90;7.05;;;11.50;80.30;;;;;;5035421;28;20167;-54
2024/01/30 09:38:47;;;;;;;8.75;6.72;;;11.60;79.90;;;;;;5036242;28;20076;-56
2024/01/30 09:41:15;;;;;;;9.27;6.47;;;11.70;79.50;;;;;;5030134;28;20041;-54
2024/01/30 09:43:48;;;;;;;7.32;5.78;;;11.80;79.30;;;;;;5035180;28;20064;-52
2024/01/30 09:46:21;;;;;;;8.73;6.72;;;12.00;79.20;;;;;;5035700;28;20064;-56
2024/01/30 09:48:48;;;;;;;8.18;5.78;;;12.10;78.70;;;;;;5022773;28;20072;-56
2024/01/30 09:51:16;;;;;;;7.72;5.68;;;12.20;78.50;;;;;;5029413;28;20052;-59
2024/01/30 09:53:44;;;;;;;8.18;6.28;;;12.30;78.20;;;;;;5029939;28;20048;-59
2024/01/30 09:56:12;;;;;;;9.40;5.68;;;12.40;78.00;;;;;;5030686;28;20096;-59
2024/01/30 09:58:41;;;;;;;7.97;5.40;;;12.50;77.60;;;;;;5030671;28;20069;-58
2024/01/30 10:01:08;;;;;;;5.78;5.18;;;12.60;77.50;;;;;;5028919;28;20149;-59
2024/01/30 10:03:36;;;;;;;6.63;5.35;;;12.60;77.10;;;;;;5034303;28;20095;-57
2024/01/30 10:06:03;;;;;;;6.88;5.93;;;12.70;76.80;;;;;;5032500;28;20042;-58
2024/01/30 10:08:33;;;;;;;5.32;4.57;;;12.80;76.60;;;;;;5034512;28;20124;-57
2024/01/30 10:11:01;;;;;;;8.52;5.75;;;12.90;76.50;;;;;;5034176;28;20033;-56
2024/01/30 10:13:29;;;;;;;8.25;5.80;;;12.90;76.30;;;;;;5033392;28;20045;-56
2024/01/30 10:15:58;;;;;;;7.68;5.22;;;13.00;76.10;;;;;;5035899;28;20454;-57
2024/01/30 10:18:24;;;;;;;8.38;5.63;;;13.10;76.00;;;;;;5034146;28;20080;-54
2024/01/30 10:20:52;;;;;;;6.47;5.70;;;13.10;75.80;;;;;;5035421;28;20053;-56
2024/01/30 10:23:19;;;;;;;7.82;5.63;;;13.20;75.80;;;;;;5036957;28;20060;-57
2024/01/30 10:25:47;;;;;;;7.95;6.22;;;13.20;75.60;;;;;;5030458;28;20065;-57
2024/01/30 10:28:13;;;;;;;7.25;5.13;;;13.30;75.50;;;;;;5036012;28;20042;-56
2024/01/30 10:30:40;;;;;;;8.70;6.80;;;13.30;75.30;;;;;;5030363;28;20038;-56
2024/01/30 10:33:07;;;;;;;7.70;5.50;;;13.40;75.30;;;;;;5033433;28;20048;-57
2024/01/30 10:35:34;;;;;;;7.90;5.55;;;13.40;75.10;;;;;;5038094;28;20055;-55
2024/01/30 10:38:01;;;;;;;6.88;5.30;;;13.50;75.00;;;;;;5033370;28;20048;-60
2024/01/30 10:40:29;;;;;;;9.95;6.25;;;13.50;74.80;;;;;;5034777;28;20457;-58
2024/01/30 10:43:01;;;;;;;8.98;6.18;;;13.60;74.60;;;;;;5035111;28;20124;-58
2024/01/30 10:45:32;;;;;;;7.70;5.38;;;13.60;74.50;;;;;;5038937;28;20112;-57
2024/01/30 10:48:01;;;;;;;5.35;4.85;;;13.60;74.40;;;;;;5032861;28;20102;-60
2024/01/30 10:50:30;;;;;;;8.02;5.32;;;13.60;74.40;;;;;;5175209;22;20084;-53
2024/01/30 10:52:59;;;;;;;8.50;5.47;;;13.70;74.30;;;;;;5071602;28;20093;-53
2024/01/30 10:55:28;;;;;;;7.72;5.60;;;13.70;74.40;;;;;;5073396;28;20133;-54
2024/01/30 10:57:55;;;;;;;7.30;5.60;;;13.80;74.20;;;;;;5078182;28;20040;-55
2024/01/30 11:00:24;;;;;;;6.97;5.93;;;13.80;74.20;;;;;;5060914;28;20653;-54
2024/01/30 11:02:51;;;;;;;7.88;5.95;;;13.80;74.10;;;;;;5062829;28;20040;-55
2024/01/30 11:05:29;;;;;;;8.23;5.50;;;13.80;74.20;;;;;;5068094;28;20047;-55
2024/01/30 11:08:11;;;;;;;9.80;6.28;;;13.80;74.10;;;;;;5065400;28;20040;-55
2024/01/30 11:10:47;;;;;;;7.20;5.72;;;13.80;74.00;;;;;;5059742;28;20051;-55
2024/01/30 11:13:14;;;;;;;8.00;6.13;;;13.90;74.20;;;;;;5067657;28;20045;-55
2024/01/30 11:15:41;;;;;;;13.35;7.72;;;13.90;74.40;;;;;;5062944;28;20045;-55
2024/01/30 11:18:08;;;;;;;9.35;5.93;;;14.00;74.50;;;;;;5062349;28;20036;-55
2024/01/30 11:20:45;;;;;;;11.05;6.70;;;14.00;74.30;;;;;;5062346;28;20049;-55
2024/01/30 11:23:12;;;;;;;8.85;7.03;;;14.00;74.30;;;;;;5066423;28;20106;-55
2024/01/30 11:25:38;;;;;;;9.43;6.80;;;14.10;74.20;;;;;;5066261;28;20462;-55
2024/01/30 11:28:05;;;;;;;9.85;6.25;;;14.10;74.10;;;;;;5061030;28;20152;-54
2024/01/30 11:30:32;;;;;;;8.77;6.13;;;14.10;74.00;;;;;;5061283;28;20036;-55
2024/01/30 11:33:01;;;;;;;8.35;5.95;;;14.10;74.00;;;;;;5058918;28;20069;-55
2024/01/30 11:35:33;;;;;;;11.98;6.28;;;14.10;73.90;;;;;;5060371;28;20048;-55
2024/01/30 11:38:00;;;;;;;7.45;5.88;;;14.10;73.80;;;;;;5063825;28;20079;-55
2024/01/30 11:40:29;;;;;;;7.15;5.38;;;14.20;73.90;;;;;;5063920;28;20044;-53
2024/01/30 11:42:58;;;;;;;7.95;6.43;;;14.20;73.80;;;;;;5058752;28;20123;-55
2024/01/30 11:45:27;;;;;;;8.63;5.82;;;14.20;73.70;;;;;;5063332;28;20044;-55
2024/01/30 11:47:54;;;;;;;8.93;5.50;;;14.20;73.70;;;;;;5063424;28;20044;-55
2024/01/30 11:50:21;;;;;;;8.75;5.78;;;14.30;73.70;;;;;;5063774;28;20507;-55
2024/01/30 11:52:48;;;;;;;7.97;5.88;;;14.20;73.70;;;;;;5059278;28;20056;-53
2024/01/30 11:55:15;;;;;;;8.73;6.78;;;14.20;73.70;;;;;;5065203;28;20110;-55
2024/01/30 11:57:44;;;;;;;7.95;5.90;;;14.30;73.70;;;;;;5066024;28;20452;-54
2024/01/30 12:00:30;;;;;;;8.23;6.10;;;14.30;73.80;;;;;;5059917;28;20037;-55
2024/01/30 12:03:00;;;;;;;7.45;6.72;;;14.30;73.70;;;;;;5065271;28;20087;-55
2024/01/30 12:05:28;;;;;;;8.60;6.65;;;14.30;73.80;;;;;;5061063;28;20044;-55
2024/01/30 12:07:58;;;;;;;9.27;6.65;;;14.30;73.80;;;;;;5061925;28;20112;-55
2024/01/30 12:10:26;;;;;;;8.65;6.03;;;14.30;73.70;;;;;;5068854;28;20047;-55
2024/01/30 12:12:55;;;;;;;12.32;7.25;;;14.30;73.70;;;;;;5071215;28;20047;-55
2024/01/30 12:15:22;;;;;;;11.93;6.47;;;14.40;73.70;;;;;;5070022;28;20128;-54
2024/01/30 12:17:49;;;;;;;10.20;6.25;;;14.40;73.70;;;;;;5069957;28;20040;-55
2024/01/30 12:20:18;;;;;;;10.43;6.47;;;14.40;73.70;;;;;;5068935;28;20497;-55
2024/01/30 12:22:48;;;;;;;10.10;6.25;;;14.40;73.70;;;;;;5066229;28;20041;-55
2024/01/30 12:25:20;;;;;;;16.88;6.47;;;14.40;73.70;;;;;;5069367;28;20090;-55
2024/01/30 12:27:50;;;;;;;8.95;6.93;;;14.50;73.70;;;;;;5068915;28;20041;-55
2024/01/30 12:30:20;;;;;;;10.05;7.57;;;14.50;73.70;;;;;;5069246;28;20072;-55
2024/01/30 12:32:49;;;;;;;10.30;7.05;;;14.50;73.60;;;;;;5060909;28;20122;-55
2024/01/30 12:35:17;;;;;;;9.55;6.90;;;14.50;73.60;;;;;;5071516;28;20102;-55
2024/01/30 12:37:45;;;;;;;8.10;6.40;;;14.50;73.50;;;;;;5067060;28;20041;-55
2024/01/30 12:40:14;;;;;;;8.82;6.38;;;14.60;74.20;;;;;;5072154;28;20451;-55
2024/01/30 12:42:42;;;;;;;11.02;6.22;;;14.60;73.60;;;;;;5064885;28;20044;-54
2024/01/30 12:45:09;;;;;;;10.50;6.28;;;14.60;73.50;;;;;;5062004;28;20043;-55
2024/01/30 12:47:36;;;;;;;9.65;7.03;;;14.60;73.40;;;;;;5066635;28;20086;-55
2024/01/30 12:50:03;;;;;;;9.90;6.38;;;14.70;73.30;;;;;;5066319;28;20500;-55
2024/01/30 12:52:30;;;;;;;8.18;6.53;;;14.70;73.20;;;;;;5070712;28;20072;-55
2024/01/30 12:54:57;;;;;;;7.63;6.15;;;14.70;73.20;;;;;;5068182;28;20460;-55